sensor_id;sensor_type;location;lat;lon;timestamp;P1;durP1;ratioP1;P2;durP2;ratioP2
52284;SDS011;38238;53.304;6.606;2022-08-19T00:00:25;11.98;;;8.07;;
52284;SDS011;38238;53.304;6.606;2022-08-19T00:02:52;9.43;;;6.32;;
52284;SDS011;38238;53.304;6.606;2022-08-19T00:05:19;7.85;;;6.93;;
52284;SDS011;38238;53.304;6.606;2022-08-19T00:07:45;7.45;;;6.75;;
52284;SDS011;38238;53.304;6.606;2022-08-19T00:10:12;9.35;;;6.60;;
52284;SDS011;38238;53.304;6.606;2022-08-19T00:12:39;9.38;;;7.40;;
52284;SDS011;38238;53.304;6.606;2022-08-19T00:15:08;8.18;;;6.90;;
52284;SDS011;38238;53.304;6.606;2022-08-19T00:17:37;6.95;;;6.25;;
52284;SDS011;38238;53.304;6.606;2022-08-19T00:20:04;8.20;;;6.00;;
52284;SDS011;38238;53.304;6.606;2022-08-19T00:22:30;6.95;;;6.25;;
52284;SDS011;38238;53.304;6.606;2022-08-19T00:24:56;11.40;;;7.45;;
52284;SDS011;38238;53.304;6.606;2022-08-19T00:27:22;8.18;;;6.68;;
52284;SDS011;38238;53.304;6.606;2022-08-19T00:29:47;7.32;;;6.13;;
52284;SDS011;38238;53.304;6.606;2022-08-19T00:32:13;8.70;;;6.50;;
52284;SDS011;38238;53.304;6.606;2022-08-19T00:34:39;9.00;;;6.95;;
52284;SDS011;38238;53.304;6.606;2022-08-19T00:37:04;8.63;;;6.82;;
52284;SDS011;38238;53.304;6.606;2022-08-19T00:39:30;10.05;;;7.10;;
52284;SDS011;38238;53.304;6.606;2022-08-19T00:41:56;8.40;;;6.88;;
52284;SDS011;38238;53.304;6.606;2022-08-19T00:44:23;7.75;;;6.93;;
52284;SDS011;38238;53.304;6.606;2022-08-19T00:46:52;10.15;;;6.65;;
52284;SDS011;38238;53.304;6.606;2022-08-19T00:49:26;10.98;;;7.13;;
52284;SDS011;38238;53.304;6.606;2022-08-19T00:52:19;11.40;;;6.57;;
52284;SDS011;38238;53.304;6.606;2022-08-19T00:54:45;7.93;;;6.50;;
52284;SDS011;38238;53.304;6.606;2022-08-19T00:57:14;8.85;;;6.93;;
52284;SDS011;38238;53.304;6.606;2022-08-19T00:59:45;8.80;;;6.82;;
52284;SDS011;38238;53.304;6.606;2022-08-19T01:02:13;9.05;;;7.70;;
52284;SDS011;38238;53.304;6.606;2022-08-19T01:04:41;8.50;;;6.97;;
52284;SDS011;38238;53.304;6.606;2022-08-19T01:07:07;9.75;;;6.45;;
52284;SDS011;38238;53.304;6.606;2022-08-19T01:09:33;8.15;;;6.57;;
52284;SDS011;38238;53.304;6.606;2022-08-19T01:11:59;7.30;;;6.32;;
52284;SDS011;38238;53.304;6.606;2022-08-19T01:14:25;9.35;;;7.40;;
52284;SDS011;38238;53.304;6.606;2022-08-19T01:16:51;7.70;;;6.90;;
52284;SDS011;38238;53.304;6.606;2022-08-19T01:21:55;9.48;;;6.22;;
52284;SDS011;38238;53.304;6.606;2022-08-19T01:24:30;8.93;;;7.38;;
52284;SDS011;38238;53.304;6.606;2022-08-19T01:26:55;7.50;;;6.70;;
52284;SDS011;38238;53.304;6.606;2022-08-19T01:29:22;8.50;;;6.90;;
52284;SDS011;38238;53.304;6.606;2022-08-19T01:31:47;11.55;;;7.20;;
52284;SDS011;38238;53.304;6.606;2022-08-19T01:34:14;8.02;;;7.22;;
52284;SDS011;38238;53.304;6.606;2022-08-19T01:36:43;8.50;;;6.65;;
52284;SDS011;38238;53.304;6.606;2022-08-19T01:39:13;9.15;;;7.18;;
52284;SDS011;38238;53.304;6.606;2022-08-19T01:41:45;7.95;;;6.93;;
52284;SDS011;38238;53.304;6.606;2022-08-19T01:44:11;8.93;;;7.07;;
52284;SDS011;38238;53.304;6.606;2022-08-19T01:46:37;9.30;;;8.32;;
52284;SDS011;38238;53.304;6.606;2022-08-19T01:49:04;10.73;;;8.20;;
52284;SDS011;38238;53.304;6.606;2022-08-19T01:51:31;9.65;;;8.65;;
52284;SDS011;38238;53.304;6.606;2022-08-19T01:53:57;11.15;;;8.05;;
52284;SDS011;38238;53.304;6.606;2022-08-19T01:56:24;11.18;;;8.43;;
52284;SDS011;38238;53.304;6.606;2022-08-19T01:58:53;9.15;;;7.75;;
52284;SDS011;38238;53.304;6.606;2022-08-19T02:01:22;11.15;;;9.48;;
52284;SDS011;38238;53.304;6.606;2022-08-19T02:03:49;10.13;;;8.70;;
52284;SDS011;38238;53.304;6.606;2022-08-19T02:06:15;10.23;;;9.23;;
52284;SDS011;38238;53.304;6.606;2022-08-19T02:08:41;11.55;;;8.93;;
52284;SDS011;38238;53.304;6.606;2022-08-19T02:11:07;12.80;;;9.43;;
52284;SDS011;38238;53.304;6.606;2022-08-19T02:13:33;12.52;;;9.15;;
52284;SDS011;38238;53.304;6.606;2022-08-19T02:15:59;11.98;;;8.88;;
52284;SDS011;38238;53.304;6.606;2022-08-19T02:18:25;12.73;;;8.80;;
52284;SDS011;38238;53.304;6.606;2022-08-19T02:20:51;12.57;;;9.10;;
52284;SDS011;38238;53.304;6.606;2022-08-19T02:23:17;9.85;;;8.85;;
52284;SDS011;38238;53.304;6.606;2022-08-19T02:25:46;11.25;;;8.93;;
52284;SDS011;38238;53.304;6.606;2022-08-19T02:28:13;10.90;;;8.88;;
52284;SDS011;38238;53.304;6.606;2022-08-19T02:30:40;11.15;;;9.00;;
52284;SDS011;38238;53.304;6.606;2022-08-19T02:33:06;10.00;;;8.70;;
52284;SDS011;38238;53.304;6.606;2022-08-19T02:35:32;12.32;;;8.60;;
52284;SDS011;38238;53.304;6.606;2022-08-19T02:37:58;10.95;;;8.63;;
52284;SDS011;38238;53.304;6.606;2022-08-19T02:40:47;10.20;;;8.05;;
52284;SDS011;38238;53.304;6.606;2022-08-19T02:43:16;10.15;;;7.88;;
52284;SDS011;38238;53.304;6.606;2022-08-19T02:45:42;10.20;;;7.38;;
52284;SDS011;38238;53.304;6.606;2022-08-19T02:48:08;10.07;;;7.93;;
52284;SDS011;38238;53.304;6.606;2022-08-19T02:50:37;9.93;;;7.85;;
52284;SDS011;38238;53.304;6.606;2022-08-19T02:53:03;10.30;;;7.63;;
52284;SDS011;38238;53.304;6.606;2022-08-19T02:55:30;10.23;;;7.90;;
52284;SDS011;38238;53.304;6.606;2022-08-19T02:57:56;9.32;;;8.20;;
52284;SDS011;38238;53.304;6.606;2022-08-19T03:00:22;10.52;;;8.80;;
52284;SDS011;38238;53.304;6.606;2022-08-19T03:02:49;9.68;;;8.48;;
52284;SDS011;38238;53.304;6.606;2022-08-19T03:05:15;11.43;;;8.57;;
52284;SDS011;38238;53.304;6.606;2022-08-19T03:07:40;10.82;;;8.30;;
52284;SDS011;38238;53.304;6.606;2022-08-19T03:10:06;10.98;;;8.68;;
52284;SDS011;38238;53.304;6.606;2022-08-19T03:12:35;9.93;;;8.82;;
52284;SDS011;38238;53.304;6.606;2022-08-19T03:15:02;8.85;;;7.93;;
52284;SDS011;38238;53.304;6.606;2022-08-19T03:17:30;10.98;;;8.32;;
52284;SDS011;38238;53.304;6.606;2022-08-19T03:19:55;9.18;;;8.18;;
52284;SDS011;38238;53.304;6.606;2022-08-19T03:22:21;9.52;;;7.53;;
52284;SDS011;38238;53.304;6.606;2022-08-19T03:24:47;12.02;;;8.18;;
52284;SDS011;38238;53.304;6.606;2022-08-19T03:27:12;10.38;;;8.38;;
52284;SDS011;38238;53.304;6.606;2022-08-19T03:29:39;10.70;;;8.25;;
52284;SDS011;38238;53.304;6.606;2022-08-19T03:32:05;10.23;;;8.70;;
52284;SDS011;38238;53.304;6.606;2022-08-19T03:34:31;10.82;;;8.27;;
52284;SDS011;38238;53.304;6.606;2022-08-19T03:37:02;11.52;;;8.30;;
52284;SDS011;38238;53.304;6.606;2022-08-19T03:39:33;10.75;;;8.70;;
52284;SDS011;38238;53.304;6.606;2022-08-19T03:42:00;11.38;;;8.32;;
52284;SDS011;38238;53.304;6.606;2022-08-19T03:44:27;10.45;;;8.60;;
52284;SDS011;38238;53.304;6.606;2022-08-19T03:46:55;10.95;;;8.25;;
52284;SDS011;38238;53.304;6.606;2022-08-19T03:49:24;10.23;;;8.48;;
52284;SDS011;38238;53.304;6.606;2022-08-19T03:51:55;10.48;;;8.00;;
52284;SDS011;38238;53.304;6.606;2022-08-19T03:54:23;9.60;;;8.02;;
52284;SDS011;38238;53.304;6.606;2022-08-19T03:56:50;9.48;;;7.97;;
52284;SDS011;38238;53.304;6.606;2022-08-19T03:59:23;10.88;;;8.15;;
52284;SDS011;38238;53.304;6.606;2022-08-19T04:01:58;13.45;;;8.82;;
52284;SDS011;38238;53.304;6.606;2022-08-19T04:04:26;9.38;;;8.27;;
52284;SDS011;38238;53.304;6.606;2022-08-19T04:06:52;10.68;;;8.68;;
52284;SDS011;38238;53.304;6.606;2022-08-19T04:09:18;9.65;;;8.63;;
52284;SDS011;38238;53.304;6.606;2022-08-19T04:11:49;9.23;;;8.20;;
52284;SDS011;38238;53.304;6.606;2022-08-19T04:14:19;9.35;;;8.38;;
52284;SDS011;38238;53.304;6.606;2022-08-19T04:16:47;9.63;;;8.15;;
52284;SDS011;38238;53.304;6.606;2022-08-19T04:19:14;10.38;;;8.95;;
52284;SDS011;38238;53.304;6.606;2022-08-19T04:21:42;9.60;;;8.02;;
52284;SDS011;38238;53.304;6.606;2022-08-19T04:24:10;10.45;;;8.80;;
52284;SDS011;38238;53.304;6.606;2022-08-19T04:26:36;9.20;;;7.90;;
52284;SDS011;38238;53.304;6.606;2022-08-19T04:29:12;9.32;;;7.82;;
52284;SDS011;38238;53.304;6.606;2022-08-19T04:31:50;10.35;;;6.63;;
52284;SDS011;38238;53.304;6.606;2022-08-19T04:34:20;8.57;;;6.60;;
52284;SDS011;38238;53.304;6.606;2022-08-19T04:36:47;7.80;;;6.65;;
52284;SDS011;38238;53.304;6.606;2022-08-19T04:39:15;7.53;;;6.05;;
52284;SDS011;38238;53.304;6.606;2022-08-19T04:41:43;7.60;;;6.20;;
52284;SDS011;38238;53.304;6.606;2022-08-19T04:44:27;7.68;;;6.32;;
52284;SDS011;38238;53.304;6.606;2022-08-19T04:46:55;8.80;;;6.35;;
52284;SDS011;38238;53.304;6.606;2022-08-19T04:49:22;8.02;;;6.47;;
52284;SDS011;38238;53.304;6.606;2022-08-19T04:51:49;8.77;;;6.38;;
52284;SDS011;38238;53.304;6.606;2022-08-19T04:54:16;9.13;;;6.90;;
52284;SDS011;38238;53.304;6.606;2022-08-19T04:56:43;11.10;;;6.53;;
52284;SDS011;38238;53.304;6.606;2022-08-19T04:59:09;7.93;;;6.50;;
52284;SDS011;38238;53.304;6.606;2022-08-19T05:01:35;8.90;;;6.88;;
52284;SDS011;38238;53.304;6.606;2022-08-19T05:04:03;8.57;;;7.50;;
52284;SDS011;38238;53.304;6.606;2022-08-19T05:06:31;8.15;;;7.30;;
52284;SDS011;38238;53.304;6.606;2022-08-19T05:09:02;9.55;;;7.82;;
52284;SDS011;38238;53.304;6.606;2022-08-19T05:11:30;12.38;;;7.57;;
52284;SDS011;38238;53.304;6.606;2022-08-19T05:13:58;7.88;;;6.97;;
52284;SDS011;38238;53.304;6.606;2022-08-19T05:16:24;7.88;;;7.07;;
52284;SDS011;38238;53.304;6.606;2022-08-19T05:18:51;9.85;;;7.50;;
52284;SDS011;38238;53.304;6.606;2022-08-19T05:21:36;11.55;;;7.45;;
52284;SDS011;38238;53.304;6.606;2022-08-19T05:24:21;10.15;;;7.45;;
52284;SDS011;38238;53.304;6.606;2022-08-19T05:26:49;9.75;;;7.05;;
52284;SDS011;38238;53.304;6.606;2022-08-19T05:29:20;8.60;;;7.38;;
52284;SDS011;38238;53.304;6.606;2022-08-19T05:31:46;8.93;;;7.88;;
52284;SDS011;38238;53.304;6.606;2022-08-19T05:34:14;8.40;;;7.50;;
52284;SDS011;38238;53.304;6.606;2022-08-19T05:36:42;9.07;;;7.10;;
52284;SDS011;38238;53.304;6.606;2022-08-19T05:39:10;9.77;;;7.78;;
52284;SDS011;38238;53.304;6.606;2022-08-19T05:41:43;10.15;;;7.38;;
52284;SDS011;38238;53.304;6.606;2022-08-19T05:44:13;10.88;;;7.88;;
52284;SDS011;38238;53.304;6.606;2022-08-19T05:46:40;10.35;;;7.70;;
52284;SDS011;38238;53.304;6.606;2022-08-19T05:49:11;9.27;;;7.93;;
52284;SDS011;38238;53.304;6.606;2022-08-19T05:51:38;10.07;;;7.60;;
52284;SDS011;38238;53.304;6.606;2022-08-19T05:54:04;9.80;;;7.68;;
52284;SDS011;38238;53.304;6.606;2022-08-19T05:56:31;10.82;;;8.20;;
52284;SDS011;38238;53.304;6.606;2022-08-19T05:58:57;9.80;;;8.48;;
52284;SDS011;38238;53.304;6.606;2022-08-19T06:01:23;10.30;;;8.63;;
52284;SDS011;38238;53.304;6.606;2022-08-19T06:03:50;10.82;;;8.40;;
52284;SDS011;38238;53.304;6.606;2022-08-19T06:06:17;14.57;;;9.10;;
52284;SDS011;38238;53.304;6.606;2022-08-19T06:08:44;13.63;;;8.65;;
52284;SDS011;38238;53.304;6.606;2022-08-19T06:11:16;11.73;;;9.23;;
52284;SDS011;38238;53.304;6.606;2022-08-19T06:13:44;11.23;;;8.80;;
52284;SDS011;38238;53.304;6.606;2022-08-19T06:16:12;10.80;;;8.73;;
52284;SDS011;38238;53.304;6.606;2022-08-19T06:18:45;14.15;;;9.20;;
52284;SDS011;38238;53.304;6.606;2022-08-19T06:21:11;12.95;;;10.05;;
52284;SDS011;38238;53.304;6.606;2022-08-19T06:23:37;11.75;;;9.35;;
52284;SDS011;38238;53.304;6.606;2022-08-19T06:26:03;13.00;;;9.93;;
52284;SDS011;38238;53.304;6.606;2022-08-19T06:28:29;11.18;;;9.98;;
52284;SDS011;38238;53.304;6.606;2022-08-19T06:30:55;13.02;;;10.23;;
52284;SDS011;38238;53.304;6.606;2022-08-19T06:33:21;12.65;;;9.70;;
52284;SDS011;38238;53.304;6.606;2022-08-19T06:35:46;13.35;;;9.57;;
52284;SDS011;38238;53.304;6.606;2022-08-19T06:38:12;14.57;;;10.68;;
52284;SDS011;38238;53.304;6.606;2022-08-19T06:40:38;11.50;;;9.75;;
52284;SDS011;38238;53.304;6.606;2022-08-19T06:43:03;22.65;;;9.70;;
52284;SDS011;38238;53.304;6.606;2022-08-19T06:45:29;13.68;;;8.93;;
52284;SDS011;38238;53.304;6.606;2022-08-19T06:47:55;12.52;;;9.10;;
52284;SDS011;38238;53.304;6.606;2022-08-19T06:50:21;11.30;;;9.40;;
52284;SDS011;38238;53.304;6.606;2022-08-19T06:52:50;13.52;;;9.75;;
52284;SDS011;38238;53.304;6.606;2022-08-19T06:55:16;13.77;;;9.45;;
52284;SDS011;38238;53.304;6.606;2022-08-19T06:57:42;11.90;;;9.00;;
52284;SDS011;38238;53.304;6.606;2022-08-19T07:00:11;12.93;;;9.70;;
52284;SDS011;38238;53.304;6.606;2022-08-19T07:02:42;11.77;;;9.43;;
52284;SDS011;38238;53.304;6.606;2022-08-19T07:05:08;10.88;;;9.30;;
52284;SDS011;38238;53.304;6.606;2022-08-19T07:07:34;12.63;;;9.90;;
52284;SDS011;38238;53.304;6.606;2022-08-19T07:10:00;11.82;;;9.23;;
52284;SDS011;38238;53.304;6.606;2022-08-19T07:12:31;12.73;;;9.65;;
52284;SDS011;38238;53.304;6.606;2022-08-19T07:15:00;10.32;;;8.23;;
52284;SDS011;38238;53.304;6.606;2022-08-19T07:17:27;10.98;;;8.82;;
52284;SDS011;38238;53.304;6.606;2022-08-19T07:19:53;9.45;;;8.38;;
52284;SDS011;38238;53.304;6.606;2022-08-19T07:22:20;10.68;;;9.07;;
52284;SDS011;38238;53.304;6.606;2022-08-19T07:24:47;12.82;;;9.45;;
52284;SDS011;38238;53.304;6.606;2022-08-19T07:27:13;11.77;;;9.10;;
52284;SDS011;38238;53.304;6.606;2022-08-19T07:29:39;10.40;;;9.25;;
52284;SDS011;38238;53.304;6.606;2022-08-19T07:32:05;12.15;;;9.45;;
52284;SDS011;38238;53.304;6.606;2022-08-19T07:34:31;14.00;;;10.32;;
52284;SDS011;38238;53.304;6.606;2022-08-19T07:37:02;12.73;;;10.27;;
52284;SDS011;38238;53.304;6.606;2022-08-19T07:39:32;11.15;;;9.55;;
52284;SDS011;38238;53.304;6.606;2022-08-19T07:42:00;10.82;;;9.73;;
52284;SDS011;38238;53.304;6.606;2022-08-19T07:44:29;11.07;;;9.23;;
52284;SDS011;38238;53.304;6.606;2022-08-19T07:46:55;10.73;;;9.38;;
52284;SDS011;38238;53.304;6.606;2022-08-19T07:49:22;11.65;;;9.85;;
52284;SDS011;38238;53.304;6.606;2022-08-19T07:51:56;11.70;;;8.93;;
52284;SDS011;38238;53.304;6.606;2022-08-19T07:54:26;11.38;;;9.43;;
52284;SDS011;38238;53.304;6.606;2022-08-19T07:56:53;11.18;;;9.98;;
52284;SDS011;38238;53.304;6.606;2022-08-19T07:59:19;12.48;;;9.82;;
52284;SDS011;38238;53.304;6.606;2022-08-19T08:01:46;13.95;;;8.95;;
52284;SDS011;38238;53.304;6.606;2022-08-19T08:04:12;13.80;;;10.80;;
52284;SDS011;38238;53.304;6.606;2022-08-19T08:06:57;13.90;;;10.57;;
52284;SDS011;38238;53.304;6.606;2022-08-19T08:09:42;14.30;;;11.02;;
52284;SDS011;38238;53.304;6.606;2022-08-19T08:12:14;16.15;;;11.48;;
52284;SDS011;38238;53.304;6.606;2022-08-19T08:14:46;13.20;;;10.02;;
52284;SDS011;38238;53.304;6.606;2022-08-19T08:17:15;13.38;;;10.02;;
52284;SDS011;38238;53.304;6.606;2022-08-19T08:19:43;12.30;;;10.75;;
52284;SDS011;38238;53.304;6.606;2022-08-19T08:22:09;13.88;;;11.07;;
52284;SDS011;38238;53.304;6.606;2022-08-19T08:25:07;12.85;;;10.93;;
52284;SDS011;38238;53.304;6.606;2022-08-19T08:27:38;13.02;;;11.50;;
52284;SDS011;38238;53.304;6.606;2022-08-19T08:30:09;11.35;;;10.25;;
52284;SDS011;38238;53.304;6.606;2022-08-19T08:32:37;11.73;;;10.05;;
52284;SDS011;38238;53.304;6.606;2022-08-19T08:35:08;16.02;;;10.85;;
52284;SDS011;38238;53.304;6.606;2022-08-19T08:37:36;13.00;;;10.82;;
52284;SDS011;38238;53.304;6.606;2022-08-19T08:40:49;10.75;;;8.63;;
52284;SDS011;38238;53.304;6.606;2022-08-19T08:42:55;9.38;;;8.00;;
52284;SDS011;38238;53.304;6.606;2022-08-19T08:45:27;11.23;;;8.48;;
52284;SDS011;38238;53.304;6.606;2022-08-19T08:47:55;11.52;;;9.43;;
52284;SDS011;38238;53.304;6.606;2022-08-19T08:50:29;10.50;;;9.20;;
52284;SDS011;38238;53.304;6.606;2022-08-19T08:53:00;12.13;;;9.20;;
52284;SDS011;38238;53.304;6.606;2022-08-19T08:55:29;9.50;;;7.88;;
52284;SDS011;38238;53.304;6.606;2022-08-19T08:58:05;11.30;;;8.35;;
52284;SDS011;38238;53.304;6.606;2022-08-19T09:00:40;10.23;;;8.38;;
52284;SDS011;38238;53.304;6.606;2022-08-19T09:03:15;9.10;;;8.07;;
52284;SDS011;38238;53.304;6.606;2022-08-19T09:11:03;12.48;;;9.27;;
52284;SDS011;38238;53.304;6.606;2022-08-19T09:16:26;9.13;;;7.65;;
52284;SDS011;38238;53.304;6.606;2022-08-19T09:18:54;9.85;;;7.72;;
52284;SDS011;38238;53.304;6.606;2022-08-19T09:21:22;10.35;;;8.75;;
52284;SDS011;38238;53.304;6.606;2022-08-19T09:23:50;9.75;;;8.73;;
52284;SDS011;38238;53.304;6.606;2022-08-19T09:26:17;9.70;;;7.88;;
52284;SDS011;38238;53.304;6.606;2022-08-19T09:28:45;8.88;;;6.35;;
52284;SDS011;38238;53.304;6.606;2022-08-19T09:31:13;7.43;;;6.10;;
52284;SDS011;38238;53.304;6.606;2022-08-19T09:33:42;6.57;;;5.57;;
52284;SDS011;38238;53.304;6.606;2022-08-19T09:36:11;9.57;;;7.25;;
52284;SDS011;38238;53.304;6.606;2022-08-19T09:38:38;8.43;;;6.88;;
52284;SDS011;38238;53.304;6.606;2022-08-19T09:41:07;8.85;;;7.63;;
52284;SDS011;38238;53.304;6.606;2022-08-19T09:43:39;10.98;;;7.35;;
52284;SDS011;38238;53.304;6.606;2022-08-19T09:46:05;8.90;;;7.15;;
52284;SDS011;38238;53.304;6.606;2022-08-19T09:48:34;8.57;;;6.70;;
52284;SDS011;38238;53.304;6.606;2022-08-19T09:51:02;9.90;;;6.72;;
52284;SDS011;38238;53.304;6.606;2022-08-19T09:53:33;9.73;;;7.50;;
52284;SDS011;38238;53.304;6.606;2022-08-19T09:55:59;8.50;;;6.90;;
52284;SDS011;38238;53.304;6.606;2022-08-19T09:58:26;9.90;;;7.47;;
52284;SDS011;38238;53.304;6.606;2022-08-19T10:00:56;11.88;;;7.68;;
52284;SDS011;38238;53.304;6.606;2022-08-19T10:03:24;8.07;;;7.00;;
52284;SDS011;38238;53.304;6.606;2022-08-19T10:05:52;7.78;;;6.72;;
52284;SDS011;38238;53.304;6.606;2022-08-19T10:08:19;9.65;;;7.82;;
52284;SDS011;38238;53.304;6.606;2022-08-19T10:10:53;7.47;;;5.82;;
52284;SDS011;38238;53.304;6.606;2022-08-19T10:13:21;6.78;;;5.63;;
52284;SDS011;38238;53.304;6.606;2022-08-19T10:15:50;8.27;;;7.03;;
52284;SDS011;38238;53.304;6.606;2022-08-19T10:18:17;9.07;;;7.35;;
52284;SDS011;38238;53.304;6.606;2022-08-19T10:20:48;9.02;;;6.93;;
52284;SDS011;38238;53.304;6.606;2022-08-19T10:23:16;8.73;;;7.82;;
52284;SDS011;38238;53.304;6.606;2022-08-19T10:25:42;10.05;;;7.43;;
52284;SDS011;38238;53.304;6.606;2022-08-19T10:28:08;8.90;;;8.00;;
52284;SDS011;38238;53.304;6.606;2022-08-19T10:30:36;9.48;;;7.78;;
52284;SDS011;38238;53.304;6.606;2022-08-19T10:33:06;9.52;;;7.90;;
52284;SDS011;38238;53.304;6.606;2022-08-19T10:35:32;8.35;;;6.68;;
52284;SDS011;38238;53.304;6.606;2022-08-19T10:37:58;8.60;;;7.60;;
52284;SDS011;38238;53.304;6.606;2022-08-19T10:40:25;10.25;;;7.97;;
52284;SDS011;38238;53.304;6.606;2022-08-19T10:42:52;8.57;;;6.97;;
52284;SDS011;38238;53.304;6.606;2022-08-19T10:45:20;8.43;;;6.80;;
52284;SDS011;38238;53.304;6.606;2022-08-19T10:47:51;9.65;;;7.45;;
52284;SDS011;38238;53.304;6.606;2022-08-19T10:50:18;11.57;;;8.88;;
52284;SDS011;38238;53.304;6.606;2022-08-19T10:53:06;11.05;;;8.88;;
52284;SDS011;38238;53.304;6.606;2022-08-19T10:55:36;9.02;;;7.70;;
52284;SDS011;38238;53.304;6.606;2022-08-19T10:58:21;10.97;;;8.33;;
52284;SDS011;38238;53.304;6.606;2022-08-19T11:00:57;9.82;;;8.20;;
52284;SDS011;38238;53.304;6.606;2022-08-19T11:03:23;10.80;;;9.38;;
52284;SDS011;38238;53.304;6.606;2022-08-19T11:06:00;10.35;;;9.20;;
52284;SDS011;38238;53.304;6.606;2022-08-19T11:08:31;9.00;;;7.95;;
52284;SDS011;38238;53.304;6.606;2022-08-19T11:10:58;10.82;;;8.93;;
52284;SDS011;38238;53.304;6.606;2022-08-19T11:13:27;10.70;;;8.55;;
52284;SDS011;38238;53.304;6.606;2022-08-19T11:15:57;11.18;;;9.80;;
52284;SDS011;38238;53.304;6.606;2022-08-19T11:18:36;12.25;;;9.23;;
52284;SDS011;38238;53.304;6.606;2022-08-19T11:21:08;9.68;;;7.97;;
52284;SDS011;38238;53.304;6.606;2022-08-19T11:23:41;10.60;;;7.40;;
52284;SDS011;38238;53.304;6.606;2022-08-19T11:26:08;10.10;;;8.90;;
52284;SDS011;38238;53.304;6.606;2022-08-19T11:28:34;8.68;;;6.85;;
52284;SDS011;38238;53.304;6.606;2022-08-19T11:31:00;11.73;;;8.40;;
52284;SDS011;38238;53.304;6.606;2022-08-19T11:33:28;10.10;;;8.32;;
52284;SDS011;38238;53.304;6.606;2022-08-19T11:35:56;10.93;;;8.25;;
52284;SDS011;38238;53.304;6.606;2022-08-19T11:38:23;8.63;;;6.88;;
52284;SDS011;38238;53.304;6.606;2022-08-19T11:40:59;12.13;;;8.80;;
52284;SDS011;38238;53.304;6.606;2022-08-19T11:43:26;9.65;;;8.63;;
52284;SDS011;38238;53.304;6.606;2022-08-19T11:45:53;11.68;;;9.23;;
52284;SDS011;38238;53.304;6.606;2022-08-19T11:48:20;9.07;;;8.18;;
52284;SDS011;38238;53.304;6.606;2022-08-19T11:50:50;9.55;;;7.80;;
52284;SDS011;38238;53.304;6.606;2022-08-19T11:53:17;8.45;;;6.78;;
52284;SDS011;38238;53.304;6.606;2022-08-19T11:55:45;8.25;;;7.43;;
52284;SDS011;38238;53.304;6.606;2022-08-19T11:58:16;8.88;;;7.75;;
52284;SDS011;38238;53.304;6.606;2022-08-19T12:00:42;9.18;;;7.78;;
52284;SDS011;38238;53.304;6.606;2022-08-19T12:03:10;12.45;;;9.60;;
52284;SDS011;38238;53.304;6.606;2022-08-19T12:05:36;12.00;;;8.95;;
52284;SDS011;38238;53.304;6.606;2022-08-19T12:08:03;10.35;;;9.25;;
52284;SDS011;38238;53.304;6.606;2022-08-19T12:10:29;11.00;;;8.65;;
52284;SDS011;38238;53.304;6.606;2022-08-19T12:12:54;11.50;;;9.88;;
52284;SDS011;38238;53.304;6.606;2022-08-19T12:15:20;10.05;;;8.43;;
52284;SDS011;38238;53.304;6.606;2022-08-19T12:17:46;9.50;;;8.55;;
52284;SDS011;38238;53.304;6.606;2022-08-19T12:20:12;9.50;;;7.72;;
52284;SDS011;38238;53.304;6.606;2022-08-19T12:22:40;8.55;;;7.57;;
52284;SDS011;38238;53.304;6.606;2022-08-19T12:25:07;8.88;;;7.88;;
52284;SDS011;38238;53.304;6.606;2022-08-19T12:27:35;9.43;;;8.18;;
52284;SDS011;38238;53.304;6.606;2022-08-19T12:30:01;9.23;;;8.25;;
52284;SDS011;38238;53.304;6.606;2022-08-19T12:32:28;9.30;;;7.82;;
52284;SDS011;38238;53.304;6.606;2022-08-19T12:34:54;8.07;;;7.28;;
52284;SDS011;38238;53.304;6.606;2022-08-19T12:37:20;9.05;;;7.57;;
52284;SDS011;38238;53.304;6.606;2022-08-19T12:39:46;8.18;;;7.38;;
52284;SDS011;38238;53.304;6.606;2022-08-19T12:42:12;9.05;;;7.68;;
52284;SDS011;38238;53.304;6.606;2022-08-19T12:44:39;11.25;;;10.15;;
52284;SDS011;38238;53.304;6.606;2022-08-19T12:47:07;11.27;;;9.48;;
52284;SDS011;38238;53.304;6.606;2022-08-19T12:49:34;13.43;;;10.07;;
52284;SDS011;38238;53.304;6.606;2022-08-19T12:52:02;12.55;;;10.05;;
52284;SDS011;38238;53.304;6.606;2022-08-19T12:54:29;14.52;;;10.55;;
52284;SDS011;38238;53.304;6.606;2022-08-19T12:56:56;13.00;;;9.65;;
52284;SDS011;38238;53.304;6.606;2022-08-19T12:59:23;9.43;;;8.35;;
52284;SDS011;38238;53.304;6.606;2022-08-19T13:01:48;11.60;;;8.90;;
52284;SDS011;38238;53.304;6.606;2022-08-19T13:04:14;11.02;;;8.85;;
52284;SDS011;38238;53.304;6.606;2022-08-19T13:06:41;9.57;;;8.38;;
52284;SDS011;38238;53.304;6.606;2022-08-19T13:09:07;9.40;;;8.43;;
52284;SDS011;38238;53.304;6.606;2022-08-19T13:11:34;11.20;;;8.30;;
52284;SDS011;38238;53.304;6.606;2022-08-19T13:14:01;16.00;;;10.73;;
52284;SDS011;38238;53.304;6.606;2022-08-19T13:16:27;16.63;;;10.05;;
52284;SDS011;38238;53.304;6.606;2022-08-19T13:18:54;16.58;;;10.85;;
52284;SDS011;38238;53.304;6.606;2022-08-19T13:21:21;15.30;;;11.20;;
52284;SDS011;38238;53.304;6.606;2022-08-19T13:23:50;15.90;;;12.25;;
52284;SDS011;38238;53.304;6.606;2022-08-19T13:26:16;18.27;;;13.35;;
52284;SDS011;38238;53.304;6.606;2022-08-19T13:28:42;15.50;;;12.68;;
52284;SDS011;38238;53.304;6.606;2022-08-19T13:31:29;19.67;;;15.20;;
52284;SDS011;38238;53.304;6.606;2022-08-19T13:34:16;19.80;;;15.48;;
52284;SDS011;38238;53.304;6.606;2022-08-19T13:36:42;17.50;;;13.85;;
52284;SDS011;38238;53.304;6.606;2022-08-19T13:39:09;18.83;;;14.68;;
52284;SDS011;38238;53.304;6.606;2022-08-19T13:41:36;17.27;;;15.20;;
52284;SDS011;38238;53.304;6.606;2022-08-19T13:44:03;16.88;;;15.02;;
52284;SDS011;38238;53.304;6.606;2022-08-19T13:46:29;20.20;;;16.33;;
52284;SDS011;38238;53.304;6.606;2022-08-19T13:48:55;25.35;;;15.65;;
52284;SDS011;38238;53.304;6.606;2022-08-19T13:51:22;17.52;;;15.73;;
52284;SDS011;38238;53.304;6.606;2022-08-19T13:53:48;16.90;;;15.13;;
52284;SDS011;38238;53.304;6.606;2022-08-19T13:56:16;18.65;;;14.32;;
52284;SDS011;38238;53.304;6.606;2022-08-19T13:58:44;19.35;;;14.38;;
52284;SDS011;38238;53.304;6.606;2022-08-19T14:01:10;17.05;;;15.02;;
52284;SDS011;38238;53.304;6.606;2022-08-19T14:03:36;18.00;;;13.98;;
52284;SDS011;38238;53.304;6.606;2022-08-19T14:06:03;15.85;;;14.18;;
52284;SDS011;38238;53.304;6.606;2022-08-19T14:08:28;18.00;;;15.15;;
52284;SDS011;38238;53.304;6.606;2022-08-19T14:10:57;16.35;;;14.05;;
52284;SDS011;38238;53.304;6.606;2022-08-19T14:13:23;20.90;;;14.50;;
52284;SDS011;38238;53.304;6.606;2022-08-19T14:15:49;19.73;;;14.02;;
52284;SDS011;38238;53.304;6.606;2022-08-19T14:18:16;16.48;;;12.80;;
52284;SDS011;38238;53.304;6.606;2022-08-19T14:20:43;20.75;;;14.85;;
52284;SDS011;38238;53.304;6.606;2022-08-19T14:23:09;17.05;;;12.70;;
52284;SDS011;38238;53.304;6.606;2022-08-19T14:25:35;18.55;;;13.27;;
52284;SDS011;38238;53.304;6.606;2022-08-19T14:28:01;15.85;;;13.25;;
52284;SDS011;38238;53.304;6.606;2022-08-19T14:30:31;15.55;;;12.35;;
52284;SDS011;38238;53.304;6.606;2022-08-19T14:32:59;17.88;;;12.70;;
52284;SDS011;38238;53.304;6.606;2022-08-19T14:35:29;16.90;;;13.32;;
52284;SDS011;38238;53.304;6.606;2022-08-19T14:38:00;16.60;;;12.73;;
52284;SDS011;38238;53.304;6.606;2022-08-19T14:40:27;14.80;;;12.32;;
52284;SDS011;38238;53.304;6.606;2022-08-19T14:42:55;16.85;;;11.77;;
52284;SDS011;38238;53.304;6.606;2022-08-19T14:45:24;15.00;;;11.60;;
52284;SDS011;38238;53.304;6.606;2022-08-19T14:47:51;16.05;;;10.95;;
52284;SDS011;38238;53.304;6.606;2022-08-19T14:50:17;16.90;;;12.52;;
52284;SDS011;38238;53.304;6.606;2022-08-19T14:52:44;15.65;;;12.35;;
52284;SDS011;38238;53.304;6.606;2022-08-19T14:55:14;17.23;;;12.00;;